首页
METAR-TAF:

METAR-TAF

机场 :

班吉-姆波科国际机场

班基, 中非共和国

纬度: 04-24N, 经度: 018-31E, 海拔: 365米

当前天气观测

该预报发布于1小时和14分钟前的02:00 UTC
静风
温度 23°C
湿度 94%
气压 1011 hPa
能見度: 8000
少量云层高于700英尺

METAR: FEFF 220200Z 00000KT 8000 FEW007 23/22 Q1011 NOSIG

时间: 04:14 (03:14 UTC)

预报

该预报发布于4小时和14分钟前的23:00 UTC
预报有效从22日的 00点(UTC)到 23日的 06点(UTC)
风速节,风向
能见度10公里或以上
1500米以下无云,无积雨云
成为
从 22日的 04点(UTC)到 22日的 06点(UTC)
能見度: 2000
轻雾
从 22日的 0800点(UTC)
风速5节,风向西
能見度: 6000
成为
从 22日的 16点(UTC)到 22日的 18点(UTC)
能見度: 3000
霾, 烟
成为
从 22日的 22点(UTC)到 23日的 00点(UTC)
能見度: 6000

TAF: FEFF 212300Z 2200/2306 00000KT CAVOK BECMG 2204/2206 2000 BR FM220800 26005KT 6000 NSW BECMG 2216/2218 3000 HZ FU BECMG 2222/2300 6000 NSW

超过4000个机场的气象观测和天气预报(METAR&TAF报告)。

可查询的气象台以黄色和红色小点在地图上表示。

将鼠标移到小点上方,可查看气象台名称。

然后点击查看天气观测和预报。

如需切换地图:点击带黑十字的绿色按钮放大地图;点击带横线的绿色按钮缩小地图;或者点击绿色箭头查看邻近地区的地图。


METAR-TAF: